Time;durP1;ratioP1;P1;durP2;ratioP2;P2;SDS_P1;SDS_P2;PMS_P1;PMS_P2;Temp;Humidity;BMP_temperature;BMP_pressure;BME280_temperature;BME280_humidity;BME280_pressure;Samples;Min_cycle;Max_cycle;Signal;HPM_P1;HPM_P2
2022/01/03 00:00:49;;;;;;;;;3.00;1.33;;;;;12.60;70.81;101660.25;5082501;27;45410;-65
2022/01/03 00:03:16;;;;;;;;;7.00;4.00;;;;;12.65;70.86;101668.88;5090905;27;45451;-65
2022/01/03 00:05:41;;;;;;;;;6.33;3.67;;;;;12.65;70.47;101679.78;5076727;28;45299;-65
2022/01/03 00:08:07;;;;;;;;;9.33;5.00;;;;;12.60;70.88;101679.34;5081568;27;45321;-65
2022/01/03 00:10:34;;;;;;;;;5.67;2.00;;;;;12.53;71.03;101672.72;5082770;27;45133;-65
2022/01/03 00:13:00;;;;;;;;;3.67;3.67;;;;;12.58;71.25;101663.13;5082089;28;45321;-65
2022/01/03 00:15:26;;;;;;;;;4.67;1.33;;;;;12.55;71.38;101660.69;5073929;28;45318;-65
2022/01/03 00:17:53;;;;;;;;;6.00;3.00;;;;;12.55;70.82;101660.69;5082091;27;45397;-65
2022/01/03 00:20:20;;;;;;;;;5.33;2.67;;;;;12.55;71.23;101668.00;5073376;27;45401;-65
2022/01/03 00:22:57;;;;;;;;;4.33;2.00;;;;;12.53;71.41;101672.72;5082135;27;45467;-65
2022/01/03 00:25:24;;;;;;;;;3.00;1.67;;;;;12.43;71.42;101676.25;5071580;28;45598;-65
2022/01/03 00:28:01;;;;;;;;;6.00;4.33;;;;;12.44;71.20;101677.13;5088101;27;45812;-65
2022/01/03 00:30:26;;;;;;;;;3.67;2.67;;;;;12.41;70.80;101689.19;5078225;27;45487;-65
2022/01/03 00:32:52;;;;;;;;;4.67;3.00;;;;;12.39;71.65;101684.88;5092003;27;45394;-65
2022/01/03 00:35:21;;;;;;;;;3.33;3.00;;;;;12.36;71.34;101680.53;5094442;27;45350;-65
2022/01/03 00:37:47;;;;;;;;;4.00;1.33;;;;;12.38;71.14;101689.44;5101941;27;45675;-65
2022/01/03 00:40:15;;;;;;;;;9.00;4.67;;;;;12.31;71.54;101691.00;5079875;27;45344;-66
2022/01/03 00:42:41;;;;;;;;;2.33;1.00;;;;;12.33;71.88;101686.28;5095066;27;45440;-65
2022/01/03 00:45:07;;;;;;;;;6.33;4.67;;;;;12.34;71.32;101698.06;5081063;27;45439;-65
2022/01/03 00:47:34;;;;;;;;;5.00;4.00;;;;;12.37;71.92;101693.16;5097816;27;45584;-65
2022/01/03 00:50:15;;;;;;;;;5.67;2.33;;;;;12.38;71.64;101688.59;5081602;27;45333;-66
2022/01/03 00:52:41;;;;;;;;;6.33;5.67;;;;;12.36;71.52;101686.00;5101177;27;45257;-65
2022/01/03 00:55:07;;;;;;;;;5.33;5.00;;;;;12.38;71.49;101686.72;5081227;27;45420;-65
2022/01/03 00:57:45;;;;;;;;;3.33;3.00;;;;;12.42;71.24;101699.06;5101394;27;45495;-65
2022/01/03 01:00:11;;;;;;;;;6.33;2.00;;;;;12.48;71.21;101682.19;5092627;27;45323;-66
2022/01/03 01:02:37;;;;;;;;;9.67;5.67;;;;;12.48;71.04;101684.03;5084961;28;45329;-65
2022/01/03 01:05:05;;;;;;;;;3.00;2.00;;;;;12.42;71.22;101682.72;5084354;28;45416;-65
2022/01/03 01:07:32;;;;;;;;;6.00;2.67;;;;;12.43;71.27;101681.72;5084813;27;45555;-65
2022/01/03 01:10:00;;;;;;;;;5.33;2.33;;;;;12.38;71.34;101675.81;5078158;28;45340;-65
2022/01/03 01:12:29;;;;;;;;;4.67;2.33;;;;;12.42;71.25;101688.16;5084999;28;45563;-65
2022/01/03 01:14:54;;;;;;;;;8.00;3.33;;;;;12.42;71.97;101685.44;5076187;28;45346;-65
2022/01/03 01:17:21;;;;;;;;;6.33;3.33;;;;;12.32;71.94;101679.09;5085418;28;46230;-65
2022/01/03 01:19:46;;;;;;;;;3.00;2.33;;;;;12.27;71.90;101673.19;5075308;28;45530;-65
2022/01/03 01:22:12;;;;;;;;;4.33;3.00;;;;;12.29;72.23;101679.38;5085731;27;45366;-65
2022/01/03 01:24:48;;;;;;;;;5.33;1.33;;;;;12.29;72.10;101679.38;5093635;27;45581;-65
2022/01/03 01:29:57;;;;;;;;;2.33;2.33;;;;;12.24;72.02;101653.53;5077987;28;45404;-65
2022/01/03 01:32:23;;;;;;;;;7.00;5.00;;;;;12.33;71.85;101674.53;5090109;27;45499;-65
2022/01/03 01:34:51;;;;;;;;;6.33;3.00;;;;;12.32;72.24;101672.78;5078983;27;45504;-65
2022/01/03 01:37:19;;;;;;;;;3.00;3.00;;;;;12.33;71.77;101669.06;5077815;28;45299;-65
2022/01/03 01:39:48;;;;;;;;;5.00;2.33;;;;;12.29;71.66;101652.13;5081182;27;45400;-65
2022/01/03 01:42:16;;;;;;;;;8.33;3.00;;;;;12.27;71.76;101654.09;5091991;27;45607;-65
2022/01/03 01:44:48;;;;;;;;;5.33;5.00;;;;;12.19;72.44;101659.41;5080754;27;45325;-65
2022/01/03 01:47:16;;;;;;;;;4.00;4.00;;;;;12.14;72.75;101668.97;5078091;28;47427;-65
2022/01/03 01:49:47;;;;;;;;;6.00;3.00;;;;;12.10;72.74;101668.38;5082741;27;45258;-65
2022/01/03 01:52:22;;;;;;;;;6.00;3.33;;;;;12.07;72.67;101663.19;5095712;27;45431;-65
2022/01/03 01:54:54;;;;;;;;;2.00;2.00;;;;;12.10;72.83;101665.66;5098491;27;45701;-65
2022/01/03 01:57:21;;;;;;;;;2.67;1.33;;;;;12.03;73.23;101661.75;5101183;27;45487;-65
2022/01/03 02:00:02;;;;;;;;;5.00;4.00;;;;;12.08;72.59;101654.03;5075051;27;45390;-65
2022/01/03 02:02:35;;;;;;;;;2.00;0.33;;;;;11.97;72.97;101649.56;5084252;27;45373;-65
2022/01/03 02:05:22;;;;;;;;;2.67;2.00;;;;;12.00;73.44;101653.84;5078739;28;45319;-65
2022/01/03 02:08:04;;;;;;;;;5.67;2.00;;;;;12.05;72.67;101665.22;5083742;27;45726;-65
2022/01/03 02:10:41;;;;;;;;;7.00;3.33;;;;;11.90;73.19;101655.69;5082752;28;45423;-65
2022/01/03 02:13:07;;;;;;;;;2.67;2.00;;;;;11.97;73.24;101673.19;5083787;27;45270;-65
2022/01/03 02:15:34;;;;;;;;;8.67;4.00;;;;;11.97;73.57;101673.19;5074368;27;45438;-65
2022/01/03 02:17:59;;;;;;;;;7.67;2.33;;;;;11.96;73.23;101676.91;5083031;27;46093;-65
2022/01/03 02:20:26;;;;;;;;;3.00;3.00;;;;;11.97;73.25;101675.94;5072874;28;45313;-66
2022/01/03 02:22:53;;;;;;;;;6.00;2.33;;;;;12.00;73.35;101662.88;5068042;27;45526;-65
2022/01/03 02:25:21;;;;;;;;;4.00;3.00;;;;;12.02;72.95;101654.59;5073785;27;45310;-65
2022/01/03 02:27:50;;;;;;;;;4.00;4.00;;;;;12.05;72.92;101660.59;5086903;27;47706;-65
2022/01/03 02:30:20;;;;;;;;;3.00;1.33;;;;;12.00;72.58;101667.47;5076959;28;45429;-65
2022/01/03 02:32:46;;;;;;;;;7.00;4.00;;;;;11.98;73.18;101673.03;5091238;27;45234;-65
2022/01/03 02:35:12;;;;;;;;;4.33;2.00;;;;;12.02;73.42;101684.53;5077865;28;45417;-65
2022/01/03 02:37:39;;;;;;;;;5.67;3.67;;;;;12.01;72.99;101688.25;5092271;27;46588;-65
2022/01/03 02:40:06;;;;;;;;;4.33;2.33;;;;;12.03;72.91;101683.53;5074870;27;45428;-65
2022/01/03 02:42:31;;;;;;;;;8.33;3.00;;;;;12.06;72.52;101683.25;5093297;27;45506;-65
2022/01/03 02:45:05;;;;;;;;;10.33;4.00;;;;;12.04;72.68;101677.09;5080728;27;45739;-65
2022/01/03 02:47:30;;;;;;;;;3.67;3.00;;;;;11.98;72.92;101674.94;5096546;27;46571;-65
2022/01/03 02:49:56;;;;;;;;;4.00;2.00;;;;;12.03;72.89;101668.06;5082475;28;46167;-65
2022/01/03 02:52:21;;;;;;;;;6.00;3.33;;;;;12.04;72.92;101660.75;5083773;27;45427;-65
2022/01/03 02:54:48;;;;;;;;;7.67;3.67;;;;;12.05;72.92;101676.94;5081817;27;45345;-65
2022/01/03 02:57:14;;;;;;;;;6.67;3.67;;;;;12.03;72.79;101678.97;5097554;27;47082;-65
2022/01/03 02:59:39;;;;;;;;;1.00;1.00;;;;;12.01;73.17;101674.66;5075453;27;45533;-65
2022/01/03 03:02:05;;;;;;;;;11.00;3.33;;;;;12.04;73.32;101677.09;5083945;27;45393;-65
2022/01/03 03:04:31;;;;;;;;;3.67;1.00;;;;;12.06;72.79;101677.81;5083274;27;45576;-65
2022/01/03 03:06:56;;;;;;;;;5.67;2.67;;;;;12.08;73.27;101673.97;5083678;27;45331;-65
2022/01/03 03:09:22;;;;;;;;;5.67;3.33;;;;;12.07;73.06;101666.78;5085211;27;45433;-65
2022/01/03 03:11:47;;;;;;;;;4.00;1.00;;;;;12.06;73.35;101656.03;5082093;28;45329;-65
2022/01/03 03:14:13;;;;;;;;;3.00;3.00;;;;;12.06;73.46;101650.56;5077165;27;45387;-65
2022/01/03 03:16:38;;;;;;;;;5.67;2.67;;;;;12.00;73.49;101641.09;5096765;27;45302;-65
2022/01/03 03:19:03;;;;;;;;;3.33;1.00;;;;;11.96;73.50;101638.78;5083287;27;45392;-65
2022/01/03 03:21:30;;;;;;;;;4.67;3.00;;;;;12.05;73.53;101643.44;5083620;27;45324;-65
2022/01/03 03:23:57;;;;;;;;;0.67;0.33;;;;;12.02;73.55;101639.09;5078715;28;45263;-65
2022/01/03 03:26:22;;;;;;;;;4.33;2.67;;;;;12.08;73.06;101645.88;5073899;27;46297;-65
2022/01/03 03:28:48;;;;;;;;;5.67;3.67;;;;;12.08;72.93;101651.31;5089950;27;45263;-65
2022/01/03 03:31:14;;;;;;;;;2.33;1.00;;;;;12.06;73.03;101645.13;5075823;27;45405;-65
2022/01/03 03:33:39;;;;;;;;;5.67;2.00;;;;;12.08;73.29;101645.88;5092699;27;45472;-65
2022/01/03 03:36:05;;;;;;;;;8.67;4.00;;;;;12.09;73.02;101642.16;5081747;27;47150;-65
2022/01/03 03:38:30;;;;;;;;;10.33;4.00;;;;;12.13;73.09;101640.84;5082512;27;45404;-65
2022/01/03 03:40:58;;;;;;;;;6.00;3.00;;;;;12.20;72.99;101652.94;5073152;27;45385;-65
2022/01/03 03:43:23;;;;;;;;;8.33;4.00;;;;;12.17;73.17;101653.22;5095389;27;45413;-65
2022/01/03 03:45:50;;;;;;;;;3.67;2.67;;;;;12.05;73.26;101643.44;5078260;27;45391;-65
2022/01/03 03:48:16;;;;;;;;;7.00;3.00;;;;;12.12;72.65;101649.19;5089580;27;45386;-65
2022/01/03 03:50:42;;;;;;;;;5.67;3.00;;;;;12.13;72.77;101640.84;5079715;27;45322;-65
2022/01/03 03:53:07;;;;;;;;;5.00;3.33;;;;;12.21;72.38;101646.50;5097650;27;45412;-65
2022/01/03 03:55:34;;;;;;;;;3.00;2.00;;;;;12.29;72.37;101634.91;5079674;27;46101;-65
2022/01/03 03:58:00;;;;;;;;;6.00;2.67;;;;;12.37;72.57;101632.34;5098214;27;45429;-65
2022/01/03 04:00:25;;;;;;;;;10.00;3.00;;;;;12.34;71.39;101641.69;5069794;28;45417;-65
2022/01/03 04:02:51;;;;;;;;;5.00;3.33;;;;;12.39;71.65;101624.91;5083502;27;45331;-65
2022/01/03 04:05:16;;;;;;;;;2.00;1.00;;;;;12.38;71.66;101623.19;5085100;28;48125;-65
2022/01/03 04:07:42;;;;;;;;;4.33;3.33;;;;;12.39;71.30;101622.19;5085824;27;45480;-65
2022/01/03 04:10:10;;;;;;;;;12.00;4.00;;;;;12.32;71.57;101608.25;5077357;27;45259;-65
2022/01/03 04:12:35;;;;;;;;;5.67;3.00;;;;;12.42;71.56;101613.72;5102178;27;45430;-65
2022/01/03 04:15:02;;;;;;;;;2.00;2.00;;;;;12.44;71.15;101615.31;5076926;27;46649;-65
2022/01/03 04:17:28;;;;;;;;;4.00;1.33;;;;;12.46;71.03;101607.84;5086225;27;45356;-65
2022/01/03 04:19:53;;;;;;;;;5.00;4.00;;;;;12.46;71.26;101602.41;5084564;28;45498;-65
2022/01/03 04:22:18;;;;;;;;;10.00;3.67;;;;;12.49;70.95;101609.47;5087031;27;45429;-65
2022/01/03 04:24:44;;;;;;;;;5.33;2.33;;;;;12.52;71.18;101594.66;5094626;27;48250;-65
2022/01/03 04:27:09;;;;;;;;;3.33;2.00;;;;;12.49;71.01;101585.75;5085400;27;45352;-65
2022/01/03 04:29:35;;;;;;;;;5.33;1.00;;;;;12.40;71.00;101583.91;5085496;27;45388;-65
2022/01/03 04:32:00;;;;;;;;;3.67;3.67;;;;;12.46;70.80;101583.34;5085581;27;45471;-65
2022/01/03 04:34:26;;;;;;;;;3.33;3.00;;;;;12.49;70.93;101591.22;5089230;27;45689;-65
2022/01/03 04:36:51;;;;;;;;;2.67;1.67;;;;;12.47;71.17;101573.28;5102239;27;45381;-65
2022/01/03 04:39:16;;;;;;;;;2.00;2.00;;;;;12.51;71.37;101587.47;5090418;27;45295;-65
2022/01/03 04:41:42;;;;;;;;;5.33;2.00;;;;;12.45;70.99;101584.31;5087650;27;45565;-65
2022/01/03 04:44:07;;;;;;;;;4.00;1.33;;;;;12.48;71.12;101575.03;5091165;27;45372;-65
2022/01/03 04:46:34;;;;;;;;;3.33;2.67;;;;;12.45;70.70;101580.75;5077716;27;45279;-65
2022/01/03 04:49:00;;;;;;;;;3.33;2.67;;;;;12.49;71.10;101584.94;5085308;27;45567;-65
2022/01/03 04:51:26;;;;;;;;;5.00;2.00;;;;;12.50;71.16;101578.44;5087348;27;45602;-65
2022/01/03 04:53:51;;;;;;;;;4.33;2.00;;;;;12.50;71.03;101578.44;5093864;27;46075;-65
2022/01/03 04:56:17;;;;;;;;;46.25;39.00;;;;;12.53;70.99;101580.03;5089116;27;45329;-64
2022/01/03 04:58:42;;;;;;;;;7.00;3.67;;;;;12.55;71.06;101569.88;5091814;27;45427;-65
2022/01/03 05:01:09;;;;;;;;;6.00;4.00;;;;;12.55;70.94;101576.19;5078808;28;45437;-64
2022/01/03 05:03:35;;;;;;;;;7.00;4.00;;;;;12.56;71.37;101567.00;5082928;28;47534;-64
2022/01/03 05:06:01;;;;;;;;;3.67;2.33;;;;;12.55;70.81;101558.97;5080721;28;45400;-64
2022/01/03 05:08:30;;;;;;;;;6.00;2.67;;;;;12.56;70.80;101568.88;5084824;27;45287;-64
2022/01/03 05:11:00;;;;;;;;;4.33;3.67;;;;;12.50;71.20;101567.53;5053307;27;46365;-65
2022/01/03 05:13:25;;;;;;;;;3.00;2.00;;;;;12.45;71.01;101553.47;5025447;28;46041;-64
2022/01/03 05:15:51;;;;;;;;;2.67;2.33;;;;;12.45;71.34;101567.97;5031936;28;45871;-64
2022/01/03 05:18:16;;;;;;;;;6.33;3.00;;;;;12.45;71.55;101564.38;5035996;28;46074;-64
2022/01/03 05:20:41;;;;;;;;;5.00;3.33;;;;;12.39;71.20;101571.25;5034832;28;45346;-64
2022/01/03 05:23:07;;;;;;;;;7.00;4.67;;;;;12.42;71.70;101559.19;5032050;28;45367;-64
2022/01/03 05:25:32;;;;;;;;;4.33;2.00;;;;;12.43;71.16;101555.47;5035349;28;45238;-65
2022/01/03 05:27:57;;;;;;;;;6.00;3.33;;;;;12.43;71.38;101560.94;5039148;28;45464;-64
2022/01/03 05:30:23;;;;;;;;;3.67;3.00;;;;;12.41;71.78;101557.50;5027086;28;45379;-65
2022/01/03 05:32:48;;;;;;;;;4.33;3.33;;;;;12.26;71.67;101570.66;5041337;28;46747;-65
2022/01/03 05:35:14;;;;;;;;;5.33;2.00;;;;;12.35;72.23;101569.81;5027527;28;45655;-64
2022/01/03 05:37:39;;;;;;;;;6.00;3.00;;;;;12.39;72.31;101571.25;5042816;28;45325;-64
2022/01/03 05:40:06;;;;;;;;;7.67;2.00;;;;;12.38;71.51;101560.50;5028958;28;45473;-65
2022/01/03 05:42:32;;;;;;;;;5.67;2.00;;;;;12.41;71.51;101576.59;5043812;28;45491;-65
2022/01/03 05:44:57;;;;;;;;;3.67;3.33;;;;;12.48;71.54;101584.06;5044292;28;45325;-65
2022/01/03 05:47:23;;;;;;;;;5.33;2.67;;;;;12.49;71.37;101572.13;5044720;28;45448;-64
2022/01/03 05:49:48;;;;;;;;;3.00;3.00;;;;;12.52;71.81;101575.59;5027731;28;45468;-64
2022/01/03 05:52:14;;;;;;;;;4.67;3.67;;;;;12.49;71.93;101563.94;5059665;28;47100;-65
2022/01/03 05:54:39;;;;;;;;;3.00;1.00;;;;;12.37;72.46;101564.22;5027674;28;45327;-65
2022/01/03 05:57:04;;;;;;;;;4.00;2.67;;;;;12.35;72.32;101569.81;5032546;28;45736;-65
2022/01/03 05:59:30;;;;;;;;;6.00;2.67;;;;;12.32;72.43;101569.25;5024602;28;47946;-64
2022/01/03 06:01:55;;;;;;;;;3.67;2.00;;;;;12.39;72.42;101564.94;5032534;28;46494;-64
2022/01/03 06:04:34;;;;;;;;;4.00;3.00;;;;;12.33;72.10;101577.28;5020280;28;45410;-66
2022/01/03 06:07:05;;;;;;;;;5.67;5.00;;;;;12.30;72.01;101572.09;5033410;28;45338;-65
2022/01/03 06:09:31;;;;;;;;;3.00;3.00;;;;;12.31;72.68;101572.97;5030829;28;45572;-66
2022/01/03 06:11:58;;;;;;;;;8.33;5.00;;;;;12.32;72.43;101570.09;5031445;28;45417;-66
2022/01/03 06:14:24;;;;;;;;;7.00;4.00;;;;;12.29;72.48;101562.19;5027207;28;45706;-65
2022/01/03 06:16:50;;;;;;;;;1.33;1.00;;;;;12.30;72.37;101561.19;5041032;28;45313;-66
2022/01/03 06:19:16;;;;;;;;;11.00;4.00;;;;;12.28;72.50;101567.78;5037516;28;45573;-66
2022/01/03 06:21:42;;;;;;;;;7.00;4.00;;;;;12.27;72.79;101571.53;5038002;28;45416;-66
2022/01/03 06:24:09;;;;;;;;;6.00;3.00;;;;;12.25;72.65;101562.63;5049581;28;45800;-66
2022/01/03 06:26:36;;;;;;;;;1.67;1.33;;;;;12.27;73.06;101572.38;5028669;28;45333;-66
2022/01/03 06:29:02;;;;;;;;;8.33;4.00;;;;;12.26;72.82;101553.47;5030932;28;45378;-66
2022/01/03 06:31:28;;;;;;;;;6.33;4.00;;;;;12.20;72.96;101548.56;5028836;28;46321;-66
2022/01/03 06:33:53;;;;;;;;;6.33;3.33;;;;;12.23;72.95;101551.88;5031607;28;45381;-66
2022/01/03 06:36:19;;;;;;;;;9.33;6.00;;;;;12.25;72.67;101549.88;5030791;28;45288;-65
2022/01/03 06:38:44;;;;;;;;;5.67;2.33;;;;;12.20;73.21;101543.94;5033449;28;45267;-64
2022/01/03 06:41:09;;;;;;;;;4.00;4.00;;;;;12.17;73.03;101540.66;5030070;28;48683;-65
2022/01/03 06:43:35;;;;;;;;;5.00;1.67;;;;;12.12;72.95;101541.09;5026651;28;45258;-64
2022/01/03 06:46:01;;;;;;;;;4.67;2.33;;;;;12.16;73.01;101542.53;5031129;28;45629;-64
2022/01/03 06:48:27;;;;;;;;;15.00;4.67;;;;;12.18;73.19;101532.34;5035510;28;45455;-65
2022/01/03 06:50:52;;;;;;;;;4.67;2.67;;;;;12.18;73.25;101540.53;5031987;28;47044;-65
2022/01/03 06:53:17;;;;;;;;;5.00;3.33;;;;;12.18;73.08;101545.97;5036232;28;45464;-65
2022/01/03 06:55:43;;;;;;;;;8.67;3.67;;;;;12.10;73.24;101532.19;5033854;28;45397;-65
2022/01/03 06:58:08;;;;;;;;;4.67;3.00;;;;;12.20;73.41;101538.50;5037867;28;45321;-66
2022/01/03 07:00:33;;;;;;;;;6.33;5.67;;;;;12.22;72.89;101546.53;5034409;28;46544;-65
2022/01/03 07:02:59;;;;;;;;;6.00;3.00;;;;;12.20;73.13;101538.50;5037099;28;45614;-65
2022/01/03 07:05:24;;;;;;;;;12.00;4.67;;;;;12.16;73.33;101533.50;5032584;28;45721;-65
2022/01/03 07:07:50;;;;;;;;;4.00;3.00;;;;;12.18;72.95;101523.31;5040469;28;45428;-64
2022/01/03 07:10:17;;;;;;;;;1.00;1.00;;;;;12.09;73.17;101523.16;5036568;28;48364;-65
2022/01/03 07:12:42;;;;;;;;;5.33;3.00;;;;;12.14;73.17;101521.84;5046428;28;45566;-65
2022/01/03 07:20:37;;;;;;;;;6.67;3.00;;;;;12.22;73.39;101524.75;5022542;28;45755;-65
2022/01/03 07:23:03;;;;;;;;;3.00;3.00;;;;;12.22;73.37;101522.88;5033849;28;45229;-65
2022/01/03 07:25:28;;;;;;;;;4.33;2.00;;;;;12.23;73.17;101508.28;5019351;28;45396;-66
2022/01/03 07:27:53;;;;;;;;;5.33;2.00;;;;;12.23;72.88;101515.59;5032048;28;45282;-66
2022/01/03 07:30:19;;;;;;;;;6.67;2.67;;;;;12.28;73.14;101519.59;5038796;28;47194;-66
2022/01/03 07:32:44;;;;;;;;;1.33;1.33;;;;;12.20;73.24;101516.72;5033972;28;45422;-66
2022/01/03 07:35:13;;;;;;;;;4.33;2.33;;;;;12.13;73.17;101510.09;5025338;28;45312;-67
2022/01/03 07:37:40;;;;;;;;;8.33;4.00;;;;;12.16;73.63;101498.94;5034434;28;45339;-64
2022/01/03 07:40:05;;;;;;;;;4.00;2.00;;;;;12.21;73.73;101495.78;5024653;28;45764;-66
2022/01/03 07:42:31;;;;;;;;;8.00;4.33;;;;;12.19;73.55;101495.09;5036410;28;45391;-65
2022/01/03 07:44:56;;;;;;;;;5.67;3.00;;;;;12.25;73.31;101502.69;5027014;28;45914;-65
2022/01/03 07:47:21;;;;;;;;;5.33;5.33;;;;;12.17;73.56;101511.56;5010101;28;45668;-64
2022/01/03 07:49:47;;;;;;;;;7.33;6.67;;;;;12.19;73.74;101512.28;5028527;28;46701;-65
2022/01/03 07:52:12;;;;;;;;;5.67;3.67;;;;;12.19;73.88;101498.66;5035847;28;45235;-65
2022/01/03 07:54:37;;;;;;;;;5.67;4.00;;;;;12.23;73.61;101499.22;5030813;28;45376;-64
2022/01/03 07:57:03;;;;;;;;;6.67;4.67;;;;;12.23;73.28;101494.66;5036454;28;45554;-65
2022/01/03 07:59:28;;;;;;;;;2.67;1.00;;;;;12.20;73.66;101496.81;5031554;28;46694;-64
2022/01/03 08:01:54;;;;;;;;;6.00;4.67;;;;;12.26;73.58;101498.97;5036832;28;45341;-65
2022/01/03 08:04:19;;;;;;;;;7.00;3.33;;;;;12.16;73.48;101488.03;5027253;28;45335;-65
2022/01/03 08:06:45;;;;;;;;;5.67;4.00;;;;;12.25;73.34;101481.75;5036196;28;45287;-65
2022/01/03 08:09:10;;;;;;;;;4.00;2.33;;;;;12.27;73.37;101484.34;5030188;28;46523;-65
2022/01/03 08:11:35;;;;;;;;;6.33;4.33;;;;;12.20;73.29;101484.03;5035042;28;45402;-65
2022/01/03 08:14:01;;;;;;;;;4.00;2.00;;;;;12.28;73.29;101480.59;5024915;28;45215;-65
2022/01/03 08:16:26;;;;;;;;;10.33;3.00;;;;;12.29;73.43;101477.72;5036556;28;45459;-64
2022/01/03 08:18:51;;;;;;;;;8.00;4.00;;;;;12.26;73.26;101493.50;5028378;28;46481;-65
2022/01/03 08:21:17;;;;;;;;;6.33;3.33;;;;;12.21;73.50;101488.47;5022731;28;45355;-66
2022/01/03 08:23:42;;;;;;;;;7.33;4.00;;;;;12.27;73.79;101497.97;5032019;28;45399;-64
2022/01/03 08:26:07;;;;;;;;;4.00;4.00;;;;;12.30;73.25;101481.31;5023870;28;45402;-65
2022/01/03 08:28:33;;;;;;;;;1.00;1.00;;;;;12.31;73.18;101489.34;5031744;28;45485;-65
2022/01/03 08:30:58;;;;;;;;;6.67;3.00;;;;;12.32;73.56;101479.31;5024149;28;45457;-65
2022/01/03 08:33:23;;;;;;;;;6.00;3.00;;;;;12.26;73.61;101475.31;5034228;28;45423;-65
2022/01/03 08:35:49;;;;;;;;;10.33;2.00;;;;;12.38;73.22;101479.59;5025723;28;45444;-65
2022/01/03 08:38:14;;;;;;;;;9.00;3.33;;;;;12.44;73.04;101481.75;5033464;28;48252;-65
2022/01/03 08:40:40;;;;;;;;;5.00;3.67;;;;;12.31;73.30;101470.28;5026117;28;45455;-65
2022/01/03 08:43:06;;;;;;;;;9.00;4.00;;;;;12.36;73.59;101478.03;5035582;28;45450;-65
2022/01/03 08:45:31;;;;;;;;;6.33;3.33;;;;;12.40;73.33;101488.50;5027760;28;45392;-65
2022/01/03 08:47:57;;;;;;;;;3.00;1.67;;;;;12.24;73.86;101480.03;5034073;28;45286;-64
2022/01/03 08:50:22;;;;;;;;;7.33;5.33;;;;;12.28;74.22;101470.56;5030076;28;45281;-65
2022/01/03 08:52:48;;;;;;;;;4.00;4.00;;;;;12.44;73.86;101475.44;5041574;28;45505;-65
2022/01/03 08:55:14;;;;;;;;;5.67;5.00;;;;;12.41;73.50;101465.72;5047247;28;45309;-64
2022/01/03 08:57:41;;;;;;;;;11.33;3.67;;;;;12.40;73.22;101464.00;5042933;28;45612;-65
2022/01/03 09:00:08;;;;;;;;;4.00;2.67;;;;;12.38;73.55;101476.88;5024028;28;45238;-65
2022/01/03 09:02:33;;;;;;;;;6.67;4.00;;;;;12.42;73.64;101466.53;5044486;28;45383;-64
2022/01/03 09:04:59;;;;;;;;;3.00;3.00;;;;;12.48;73.75;101472.31;5026154;28;45302;-66
2022/01/03 09:07:24;;;;;;;;;3.67;3.33;;;;;12.60;73.62;101472.16;5044313;28;45608;-65
2022/01/03 09:09:49;;;;;;;;;6.33;3.67;;;;;12.64;73.02;101470.88;5027910;28;45448;-63
2022/01/03 09:12:15;;;;;;;;;5.00;4.00;;;;;12.69;73.00;101466.72;5038202;28;45434;-64
2022/01/03 09:14:41;;;;;;;;;5.33;2.67;;;;;12.66;73.10;101457.94;5028468;28;45614;-65
2022/01/03 09:17:07;;;;;;;;;8.33;5.33;;;;;12.69;72.77;101463.13;5044043;28;45489;-64
2022/01/03 09:19:32;;;;;;;;;3.67;2.00;;;;;12.69;72.79;101463.13;5025670;28;45466;-65
2022/01/03 09:22:13;;;;;;;;;5.67;3.00;;;;;12.72;72.85;101462.81;5031512;28;45370;-65
2022/01/03 09:24:46;;;;;;;;;7.33;2.67;;;;;12.57;73.43;101456.06;5030451;28;45481;-66
2022/01/03 09:30:01;;;;;;;;;4.33;4.33;;;;;12.65;72.62;101462.53;5027637;28;46009;-64
2022/01/03 09:32:26;;;;;;;;;3.00;1.00;;;;;12.77;72.69;101457.81;5037399;28;45466;-64
2022/01/03 09:34:51;;;;;;;;;6.33;4.67;;;;;12.67;73.09;101468.72;5029530;28;45404;-64
2022/01/03 09:37:20;;;;;;;;;5.33;1.67;;;;;12.54;73.79;101454.50;5036968;28;45434;-64
2022/01/03 09:39:47;;;;;;;;;6.00;3.67;;;;;12.56;73.81;101457.97;5031119;28;45336;-64
2022/01/03 09:42:19;;;;;;;;;3.67;2.33;;;;;12.44;73.68;101435.44;5036422;28;45440;-65
2022/01/03 09:44:46;;;;;;;;;4.33;3.67;;;;;12.56;73.71;101435.31;5032811;28;45361;-65
2022/01/03 09:47:16;;;;;;;;;6.33;4.00;;;;;12.62;73.51;101440.16;5038890;28;45845;-64
2022/01/03 09:49:43;;;;;;;;;6.67;3.67;;;;;12.69;73.80;101453.06;5034197;28;45311;-64
2022/01/03 09:52:09;;;;;;;;;8.00;3.00;;;;;12.69;73.56;101453.06;5034247;28;45233;-65
2022/01/03 09:54:36;;;;;;;;;7.00;2.67;;;;;12.64;73.44;101446.34;5027609;28;45330;-65
2022/01/03 09:57:03;;;;;;;;;5.33;2.33;;;;;12.78;73.17;101445.91;5054907;28;47202;-65
2022/01/03 09:59:30;;;;;;;;;7.33;5.00;;;;;12.78;72.76;101441.28;5029301;28;45497;-65
2022/01/03 10:01:56;;;;;;;;;8.00;4.00;;;;;12.84;72.78;101450.75;5038844;28;45298;-65
2022/01/03 10:04:22;;;;;;;;;4.00;3.00;;;;;12.87;72.50;101442.25;5031371;28;45416;-65
2022/01/03 10:06:48;;;;;;;;;4.67;3.00;;;;;12.97;72.69;101445.84;5039370;28;45293;-65
2022/01/03 10:09:14;;;;;;;;;5.00;3.67;;;;;12.85;72.71;101430.66;5036095;28;45741;-64
2022/01/03 10:11:40;;;;;;;;;5.67;5.33;;;;;12.91;71.94;101443.72;5024269;28;45379;-65
2022/01/03 10:14:05;;;;;;;;;5.67;4.00;;;;;12.86;72.75;101440.53;5027298;28;45415;-65
2022/01/03 10:16:31;;;;;;;;;2.33;2.33;;;;;12.90;72.27;101433.81;5053234;28;48105;-67
2022/01/03 10:18:58;;;;;;;;;2.33;1.67;;;;;12.97;71.88;101436.81;5029556;28;45283;-65
2022/01/03 10:21:40;;;;;;;;;6.33;3.00;;;;;13.00;72.32;101437.38;5025110;28;45323;-65
2022/01/03 10:24:07;;;;;;;;;6.67;4.00;;;;;12.96;71.91;101425.03;5043034;28;45337;-64
2022/01/03 10:26:33;;;;;;;;;7.67;3.00;;;;;13.03;72.29;101414.38;5024931;28;46063;-65
2022/01/03 10:29:31;;;;;;;;;4.00;3.00;;;;;13.07;71.72;101430.31;5040669;28;45439;-66
2022/01/03 10:31:59;;;;;;;;;10.33;5.00;;;;;13.11;71.72;101417.22;5031641;28;45411;-67
2022/01/03 10:34:25;;;;;;;;;5.00;3.00;;;;;13.10;71.41;101416.38;5028711;28;45422;-65
2022/01/03 10:36:53;;;;;;;;;2.67;1.67;;;;;13.08;71.58;101407.47;5033064;28;46276;-65
2022/01/03 10:39:26;;;;;;;;;3.67;3.67;;;;;13.14;71.30;101406.94;5039163;28;45395;-65
2022/01/03 10:42:14;;;;;;;;;3.00;1.67;;;;;13.14;71.17;101403.34;5050205;28;45281;-65
2022/01/03 10:44:41;;;;;;;;;3.33;2.00;;;;;13.12;71.37;101406.19;5031158;28;45373;-65
2022/01/03 10:47:15;;;;;;;;;6.00;5.00;;;;;13.01;71.02;101379.06;5036212;28;45960;-65
2022/01/03 10:49:43;;;;;;;;;5.67;3.67;;;;;13.04;70.96;101388.81;5031351;28;45428;-65
2022/01/03 10:52:11;;;;;;;;;3.33;3.33;;;;;13.10;71.68;101385.50;5031617;28;45392;-65
2022/01/03 10:54:37;;;;;;;;;9.00;3.33;;;;;13.15;71.16;101378.63;5034291;28;45473;-65
2022/01/03 10:57:02;;;;;;;;;7.33;5.00;;;;;12.98;71.34;101373.06;5037374;28;45632;-65
2022/01/03 10:59:30;;;;;;;;;5.33;2.33;;;;;13.04;71.63;101373.31;5023865;28;45386;-65
2022/01/03 11:02:00;;;;;;;;;4.00;3.67;;;;;13.05;71.48;101366.00;5036482;28;45359;-64
2022/01/03 11:04:25;;;;;;;;;4.00;3.00;;;;;13.11;71.08;101377.19;5029748;28;45319;-65
2022/01/03 11:13:10;;;;;;;;;3.33;1.33;;;;;13.11;70.92;101354.50;5030496;28;45344;-65
2022/01/03 11:16:00;;;;;;;;;3.33;3.33;;;;;13.03;71.20;101336.13;5026206;28;45202;-65
2022/01/03 11:18:37;;;;;;;;;5.00;3.00;;;;;13.03;70.76;101355.22;5031971;28;45518;-65
2022/01/03 11:21:16;;;;;;;;;5.00;2.00;;;;;13.10;70.91;101356.34;5023976;28;45444;-65
2022/01/03 11:23:47;;;;;;;;;5.00;4.00;;;;;13.11;70.97;101343.56;5035370;28;45302;-64
2022/01/03 11:26:18;;;;;;;;;5.00;4.00;;;;;13.13;71.14;101336.13;5026404;28;45530;-65
2022/01/03 11:28:44;;;;;;;;;4.00;2.33;;;;;13.16;70.82;101323.03;5016165;28;46190;-65
2022/01/03 11:31:12;;;;;;;;;5.67;4.00;;;;;13.07;70.77;101326.66;5027056;28;45471;-65
2022/01/03 11:33:39;;;;;;;;;11.00;4.00;;;;;13.23;70.88;101309.66;5026718;28;45298;-64
2022/01/03 11:36:05;;;;;;;;;12.33;4.33;;;;;13.21;70.61;101300.78;5029673;28;45413;-65
2022/01/03 11:38:36;;;;;;;;;4.00;4.00;;;;;13.27;70.97;101300.16;5033484;28;46415;-65
2022/01/03 11:41:04;;;;;;;;;5.33;2.67;;;;;13.41;70.12;101302.38;5031587;28;45386;-65